sensor_id;sensor_type;location;lat;lon;timestamp;P1;durP1;ratioP1;P2;durP2;ratioP2
1847;SDS011;924;52.448;13.356;2023-05-07T00:01:05;15.30;;;13.70;;
1847;SDS011;924;52.448;13.356;2023-05-07T00:03:31;15.37;;;13.80;;
1847;SDS011;924;52.448;13.356;2023-05-07T00:05:57;15.27;;;13.90;;
1847;SDS011;924;52.448;13.356;2023-05-07T00:08:22;16.70;;;13.77;;
1847;SDS011;924;52.448;13.356;2023-05-07T00:10:47;17.27;;;15.60;;
1847;SDS011;924;52.448;13.356;2023-05-07T00:13:12;17.60;;;13.30;;
1847;SDS011;924;52.448;13.356;2023-05-07T00:15:38;13.70;;;12.30;;
1847;SDS011;924;52.448;13.356;2023-05-07T00:18:03;17.53;;;13.83;;
1847;SDS011;924;52.448;13.356;2023-05-07T00:20:29;15.60;;;13.77;;
1847;SDS011;924;52.448;13.356;2023-05-07T00:22:54;14.40;;;12.83;;
1847;SDS011;924;52.448;13.356;2023-05-07T00:25:19;13.90;;;12.50;;
1847;SDS011;924;52.448;13.356;2023-05-07T00:27:45;14.10;;;12.00;;
1847;SDS011;924;52.448;13.356;2023-05-07T00:30:10;14.37;;;12.83;;
1847;SDS011;924;52.448;13.356;2023-05-07T00:32:35;14.83;;;13.43;;
1847;SDS011;924;52.448;13.356;2023-05-07T00:35:01;14.83;;;13.33;;
1847;SDS011;924;52.448;13.356;2023-05-07T00:37:26;16.37;;;12.63;;
1847;SDS011;924;52.448;13.356;2023-05-07T00:39:52;13.63;;;12.23;;
1847;SDS011;924;52.448;13.356;2023-05-07T00:42:17;13.63;;;11.20;;
1847;SDS011;924;52.448;13.356;2023-05-07T00:44:43;16.70;;;12.67;;
1847;SDS011;924;52.448;13.356;2023-05-07T00:47:08;13.53;;;12.23;;
1847;SDS011;924;52.448;13.356;2023-05-07T00:49:36;13.10;;;11.80;;
1847;SDS011;924;52.448;13.356;2023-05-07T00:52:02;12.40;;;10.97;;
1847;SDS011;924;52.448;13.356;2023-05-07T00:54:27;12.67;;;11.47;;
1847;SDS011;924;52.448;13.356;2023-05-07T00:56:53;11.30;;;10.27;;
1847;SDS011;924;52.448;13.356;2023-05-07T00:59:19;12.30;;;11.17;;
1847;SDS011;924;52.448;13.356;2023-05-07T01:01:44;12.60;;;11.33;;
1847;SDS011;924;52.448;13.356;2023-05-07T01:04:10;13.47;;;12.03;;
1847;SDS011;924;52.448;13.356;2023-05-07T01:06:35;12.47;;;11.27;;
1847;SDS011;924;52.448;13.356;2023-05-07T01:09:01;13.73;;;11.70;;
1847;SDS011;924;52.448;13.356;2023-05-07T01:11:26;12.00;;;10.80;;
1847;SDS011;924;52.448;13.356;2023-05-07T01:13:52;11.57;;;10.47;;
1847;SDS011;924;52.448;13.356;2023-05-07T01:16:17;11.87;;;10.67;;
1847;SDS011;924;52.448;13.356;2023-05-07T01:18:42;11.53;;;10.43;;
1847;SDS011;924;52.448;13.356;2023-05-07T01:21:08;11.60;;;10.50;;
1847;SDS011;924;52.448;13.356;2023-05-07T01:23:35;13.20;;;11.90;;
1847;SDS011;924;52.448;13.356;2023-05-07T01:26:00;12.87;;;11.60;;
1847;SDS011;924;52.448;13.356;2023-05-07T01:28:26;13.10;;;11.90;;
1847;SDS011;924;52.448;13.356;2023-05-07T01:30:58;13.60;;;11.73;;
1847;SDS011;924;52.448;13.356;2023-05-07T01:33:25;12.23;;;11.03;;
1847;SDS011;924;52.448;13.356;2023-05-07T01:35:51;13.10;;;11.50;;
1847;SDS011;924;52.448;13.356;2023-05-07T01:38:18;13.17;;;11.80;;
1847;SDS011;924;52.448;13.356;2023-05-07T01:40:43;15.00;;;12.00;;
1847;SDS011;924;52.448;13.356;2023-05-07T01:43:09;13.63;;;12.33;;
1847;SDS011;924;52.448;13.356;2023-05-07T01:45:34;12.80;;;11.37;;
1847;SDS011;924;52.448;13.356;2023-05-07T01:48:00;15.53;;;12.27;;
1847;SDS011;924;52.448;13.356;2023-05-07T01:50:26;13.50;;;12.10;;
1847;SDS011;924;52.448;13.356;2023-05-07T01:52:52;14.00;;;12.70;;
1847;SDS011;924;52.448;13.356;2023-05-07T01:55:17;14.00;;;12.60;;
1847;SDS011;924;52.448;13.356;2023-05-07T01:57:43;13.53;;;12.30;;
1847;SDS011;924;52.448;13.356;2023-05-07T02:00:08;12.73;;;11.50;;
1847;SDS011;924;52.448;13.356;2023-05-07T02:02:34;12.47;;;11.37;;
1847;SDS011;924;52.448;13.356;2023-05-07T02:04:59;14.33;;;12.90;;
1847;SDS011;924;52.448;13.356;2023-05-07T02:07:25;12.30;;;11.03;;
1847;SDS011;924;52.448;13.356;2023-05-07T02:09:50;14.00;;;12.50;;
1847;SDS011;924;52.448;13.356;2023-05-07T02:12:15;12.07;;;10.27;;
1847;SDS011;924;52.448;13.356;2023-05-07T02:14:41;12.07;;;10.97;;
1847;SDS011;924;52.448;13.356;2023-05-07T02:17:06;11.70;;;10.60;;
1847;SDS011;924;52.448;13.356;2023-05-07T02:19:31;13.10;;;11.70;;
1847;SDS011;924;52.448;13.356;2023-05-07T02:21:56;12.77;;;11.40;;
1847;SDS011;924;52.448;13.356;2023-05-07T02:24:21;11.60;;;10.60;;
1847;SDS011;924;52.448;13.356;2023-05-07T02:26:47;12.50;;;11.20;;
1847;SDS011;924;52.448;13.356;2023-05-07T02:29:12;13.07;;;11.70;;
1847;SDS011;924;52.448;13.356;2023-05-07T02:31:37;12.77;;;11.60;;
1847;SDS011;924;52.448;13.356;2023-05-07T02:34:02;14.23;;;12.13;;
1847;SDS011;924;52.448;13.356;2023-05-07T02:36:28;12.57;;;11.27;;
1847;SDS011;924;52.448;13.356;2023-05-07T02:38:54;12.40;;;10.83;;
1847;SDS011;924;52.448;13.356;2023-05-07T02:41:19;14.00;;;11.70;;
1847;SDS011;924;52.448;13.356;2023-05-07T02:43:45;13.70;;;12.40;;
1847;SDS011;924;52.448;13.356;2023-05-07T02:46:10;14.73;;;11.20;;
1847;SDS011;924;52.448;13.356;2023-05-07T02:48:35;11.93;;;10.70;;
1847;SDS011;924;52.448;13.356;2023-05-07T02:51:01;12.07;;;10.87;;
1847;SDS011;924;52.448;13.356;2023-05-07T02:53:27;12.13;;;10.97;;
1847;SDS011;924;52.448;13.356;2023-05-07T02:55:52;12.13;;;10.93;;
1847;SDS011;924;52.448;13.356;2023-05-07T02:58:18;10.90;;;9.80;;
1847;SDS011;924;52.448;13.356;2023-05-07T03:00:43;12.27;;;11.00;;
1847;SDS011;924;52.448;13.356;2023-05-07T03:03:08;11.47;;;10.47;;
1847;SDS011;924;52.448;13.356;2023-05-07T03:05:33;10.77;;;9.67;;
1847;SDS011;924;52.448;13.356;2023-05-07T03:07:59;11.67;;;10.50;;
1847;SDS011;924;52.448;13.356;2023-05-07T03:10:24;11.80;;;10.67;;
1847;SDS011;924;52.448;13.356;2023-05-07T03:12:49;12.70;;;10.43;;
1847;SDS011;924;52.448;13.356;2023-05-07T03:15:14;11.67;;;10.40;;
1847;SDS011;924;52.448;13.356;2023-05-07T03:17:40;12.30;;;10.80;;
1847;SDS011;924;52.448;13.356;2023-05-07T03:20:05;12.27;;;11.07;;
1847;SDS011;924;52.448;13.356;2023-05-07T03:22:30;12.53;;;11.33;;
1847;SDS011;924;52.448;13.356;2023-05-07T03:24:56;13.80;;;10.90;;
1847;SDS011;924;52.448;13.356;2023-05-07T03:27:21;12.67;;;11.40;;
1847;SDS011;924;52.448;13.356;2023-05-07T03:29:46;13.50;;;12.13;;
1847;SDS011;924;52.448;13.356;2023-05-07T03:32:11;16.40;;;11.90;;
1847;SDS011;924;52.448;13.356;2023-05-07T03:34:36;15.67;;;11.07;;
1847;SDS011;924;52.448;13.356;2023-05-07T03:37:02;12.17;;;11.00;;
1847;SDS011;924;52.448;13.356;2023-05-07T03:39:27;12.30;;;10.80;;
1847;SDS011;924;52.448;13.356;2023-05-07T03:41:52;12.70;;;10.43;;
1847;SDS011;924;52.448;13.356;2023-05-07T03:44:17;13.23;;;11.93;;
1847;SDS011;924;52.448;13.356;2023-05-07T03:46:43;12.47;;;11.17;;
1847;SDS011;924;52.448;13.356;2023-05-07T03:49:08;12.70;;;11.40;;
1847;SDS011;924;52.448;13.356;2023-05-07T03:51:33;13.57;;;12.23;;
1847;SDS011;924;52.448;13.356;2023-05-07T03:53:58;13.67;;;12.17;;
1847;SDS011;924;52.448;13.356;2023-05-07T03:56:23;19.60;;;11.83;;
1847;SDS011;924;52.448;13.356;2023-05-07T03:58:51;12.63;;;10.77;;
1847;SDS011;924;52.448;13.356;2023-05-07T04:01:16;14.60;;;13.10;;
1847;SDS011;924;52.448;13.356;2023-05-07T04:03:42;13.47;;;12.17;;
1847;SDS011;924;52.448;13.356;2023-05-07T04:06:07;12.53;;;11.23;;
1847;SDS011;924;52.448;13.356;2023-05-07T04:08:32;12.47;;;11.33;;
1847;SDS011;924;52.448;13.356;2023-05-07T04:10:57;15.03;;;11.30;;
1847;SDS011;924;52.448;13.356;2023-05-07T04:13:23;12.50;;;11.20;;
1847;SDS011;924;52.448;13.356;2023-05-07T04:15:48;13.60;;;11.10;;
1847;SDS011;924;52.448;13.356;2023-05-07T04:18:14;13.63;;;12.30;;
1847;SDS011;924;52.448;13.356;2023-05-07T04:20:39;12.37;;;11.27;;
1847;SDS011;924;52.448;13.356;2023-05-07T04:23:04;13.90;;;11.27;;
1847;SDS011;924;52.448;13.356;2023-05-07T04:25:30;13.07;;;11.47;;
1847;SDS011;924;52.448;13.356;2023-05-07T04:27:55;12.23;;;10.47;;
1847;SDS011;924;52.448;13.356;2023-05-07T04:30:20;12.40;;;11.10;;
1847;SDS011;924;52.448;13.356;2023-05-07T04:32:46;11.47;;;10.33;;
1847;SDS011;924;52.448;13.356;2023-05-07T04:35:11;11.83;;;10.73;;
1847;SDS011;924;52.448;13.356;2023-05-07T04:37:36;11.40;;;10.07;;
1847;SDS011;924;52.448;13.356;2023-05-07T04:40:01;11.27;;;10.27;;
1847;SDS011;924;52.448;13.356;2023-05-07T04:42:27;11.07;;;9.93;;
1847;SDS011;924;52.448;13.356;2023-05-07T04:44:53;11.63;;;10.37;;
1847;SDS011;924;52.448;13.356;2023-05-07T04:47:18;12.60;;;10.13;;
1847;SDS011;924;52.448;13.356;2023-05-07T04:49:44;10.30;;;9.50;;
1847;SDS011;924;52.448;13.356;2023-05-07T04:52:09;10.20;;;9.17;;
1847;SDS011;924;52.448;13.356;2023-05-07T04:54:34;12.30;;;9.60;;
1847;SDS011;924;52.448;13.356;2023-05-07T04:57:00;10.07;;;9.07;;
1847;SDS011;924;52.448;13.356;2023-05-07T04:59:25;11.23;;;10.23;;
1847;SDS011;924;52.448;13.356;2023-05-07T05:01:50;8.87;;;7.97;;
1847;SDS011;924;52.448;13.356;2023-05-07T05:04:15;9.33;;;8.43;;
1847;SDS011;924;52.448;13.356;2023-05-07T05:06:41;10.03;;;9.13;;
1847;SDS011;924;52.448;13.356;2023-05-07T05:09:06;10.23;;;9.20;;
1847;SDS011;924;52.448;13.356;2023-05-07T05:11:31;9.90;;;8.93;;
1847;SDS011;924;52.448;13.356;2023-05-07T05:13:58;9.90;;;8.90;;
1847;SDS011;924;52.448;13.356;2023-05-07T05:16:23;9.60;;;8.70;;
1847;SDS011;924;52.448;13.356;2023-05-07T05:18:49;10.60;;;9.40;;
1847;SDS011;924;52.448;13.356;2023-05-07T05:21:14;9.93;;;8.70;;
1847;SDS011;924;52.448;13.356;2023-05-07T05:23:39;11.43;;;9.20;;
1847;SDS011;924;52.448;13.356;2023-05-07T05:26:05;9.63;;;8.63;;
1847;SDS011;924;52.448;13.356;2023-05-07T05:28:30;8.80;;;8.00;;
1847;SDS011;924;52.448;13.356;2023-05-07T05:30:55;10.17;;;9.10;;
1847;SDS011;924;52.448;13.356;2023-05-07T05:33:20;9.17;;;8.27;;
1847;SDS011;924;52.448;13.356;2023-05-07T05:35:46;10.47;;;9.50;;
1847;SDS011;924;52.448;13.356;2023-05-07T05:38:11;8.90;;;8.00;;
1847;SDS011;924;52.448;13.356;2023-05-07T05:40:36;10.37;;;7.93;;
1847;SDS011;924;52.448;13.356;2023-05-07T05:43:01;9.87;;;7.63;;
1847;SDS011;924;52.448;13.356;2023-05-07T05:45:26;8.43;;;7.70;;
1847;SDS011;924;52.448;13.356;2023-05-07T05:47:52;8.83;;;8.03;;
1847;SDS011;924;52.448;13.356;2023-05-07T05:50:17;8.60;;;7.77;;
1847;SDS011;924;52.448;13.356;2023-05-07T05:52:42;9.20;;;8.30;;
1847;SDS011;924;52.448;13.356;2023-05-07T05:55:08;9.47;;;8.53;;
1847;SDS011;924;52.448;13.356;2023-05-07T05:57:33;8.67;;;7.30;;
1847;SDS011;924;52.448;13.356;2023-05-07T05:59:59;8.60;;;7.90;;
1847;SDS011;924;52.448;13.356;2023-05-07T06:02:24;9.60;;;8.60;;
1847;SDS011;924;52.448;13.356;2023-05-07T06:04:50;8.23;;;7.53;;
1847;SDS011;924;52.448;13.356;2023-05-07T06:07:15;9.40;;;8.20;;
1847;SDS011;924;52.448;13.356;2023-05-07T06:09:40;8.87;;;7.93;;
1847;SDS011;924;52.448;13.356;2023-05-07T06:12:05;8.73;;;7.90;;
1847;SDS011;924;52.448;13.356;2023-05-07T06:14:31;10.63;;;8.00;;
1847;SDS011;924;52.448;13.356;2023-05-07T06:16:56;7.97;;;7.27;;
1847;SDS011;924;52.448;13.356;2023-05-07T06:19:21;8.63;;;7.80;;
1847;SDS011;924;52.448;13.356;2023-05-07T06:21:48;7.77;;;6.97;;
1847;SDS011;924;52.448;13.356;2023-05-07T06:24:14;8.50;;;7.70;;
1847;SDS011;924;52.448;13.356;2023-05-07T06:26:39;7.37;;;6.67;;
1847;SDS011;924;52.448;13.356;2023-05-07T06:29:04;7.53;;;6.43;;
1847;SDS011;924;52.448;13.356;2023-05-07T06:31:30;7.50;;;6.67;;
1847;SDS011;924;52.448;13.356;2023-05-07T06:33:58;7.03;;;6.33;;
1847;SDS011;924;52.448;13.356;2023-05-07T06:36:24;7.57;;;6.87;;
1847;SDS011;924;52.448;13.356;2023-05-07T06:38:49;7.93;;;7.10;;
1847;SDS011;924;52.448;13.356;2023-05-07T06:41:14;8.27;;;7.53;;
1847;SDS011;924;52.448;13.356;2023-05-07T06:43:39;10.17;;;7.50;;
1847;SDS011;924;52.448;13.356;2023-05-07T06:46:04;7.70;;;7.00;;
1847;SDS011;924;52.448;13.356;2023-05-07T06:48:30;8.33;;;7.53;;
1847;SDS011;924;52.448;13.356;2023-05-07T06:50:55;8.07;;;6.97;;
1847;SDS011;924;52.448;13.356;2023-05-07T06:53:22;8.70;;;7.90;;
1847;SDS011;924;52.448;13.356;2023-05-07T06:55:47;9.87;;;8.07;;
1847;SDS011;924;52.448;13.356;2023-05-07T06:58:13;8.97;;;7.93;;
1847;SDS011;924;52.448;13.356;2023-05-07T07:00:38;9.07;;;8.17;;
1847;SDS011;924;52.448;13.356;2023-05-07T07:03:03;9.07;;;8.17;;
1847;SDS011;924;52.448;13.356;2023-05-07T07:05:28;8.27;;;7.47;;
1847;SDS011;924;52.448;13.356;2023-05-07T07:07:54;9.27;;;7.20;;
1847;SDS011;924;52.448;13.356;2023-05-07T07:10:19;10.57;;;7.70;;
1847;SDS011;924;52.448;13.356;2023-05-07T07:12:45;8.30;;;6.30;;
1847;SDS011;924;52.448;13.356;2023-05-07T07:15:10;8.37;;;7.00;;
1847;SDS011;924;52.448;13.356;2023-05-07T07:17:36;7.57;;;6.77;;
1847;SDS011;924;52.448;13.356;2023-05-07T07:20:01;6.63;;;5.97;;
1847;SDS011;924;52.448;13.356;2023-05-07T07:22:26;7.10;;;6.03;;
1847;SDS011;924;52.448;13.356;2023-05-07T07:24:51;7.97;;;6.50;;
1847;SDS011;924;52.448;13.356;2023-05-07T07:27:16;8.90;;;5.97;;
1847;SDS011;924;52.448;13.356;2023-05-07T07:29:42;6.30;;;5.70;;
1847;SDS011;924;52.448;13.356;2023-05-07T07:32:07;10.30;;;6.50;;
1847;SDS011;924;52.448;13.356;2023-05-07T07:34:32;6.60;;;6.00;;
1847;SDS011;924;52.448;13.356;2023-05-07T07:36:58;7.13;;;6.47;;
1847;SDS011;924;52.448;13.356;2023-05-07T07:39:23;6.97;;;6.27;;
1847;SDS011;924;52.448;13.356;2023-05-07T07:41:48;7.00;;;6.33;;
1847;SDS011;924;52.448;13.356;2023-05-07T07:44:13;7.20;;;6.27;;
1847;SDS011;924;52.448;13.356;2023-05-07T07:46:39;6.10;;;5.50;;
1847;SDS011;924;52.448;13.356;2023-05-07T07:49:04;6.23;;;5.70;;
1847;SDS011;924;52.448;13.356;2023-05-07T07:51:29;6.70;;;6.10;;
1847;SDS011;924;52.448;13.356;2023-05-07T07:53:55;7.80;;;5.33;;
1847;SDS011;924;52.448;13.356;2023-05-07T07:56:22;5.50;;;5.00;;
1847;SDS011;924;52.448;13.356;2023-05-07T07:58:47;5.30;;;4.90;;
1847;SDS011;924;52.448;13.356;2023-05-07T08:01:13;6.10;;;5.50;;
1847;SDS011;924;52.448;13.356;2023-05-07T08:03:38;5.57;;;4.97;;
1847;SDS011;924;52.448;13.356;2023-05-07T08:06:03;5.00;;;4.60;;
1847;SDS011;924;52.448;13.356;2023-05-07T08:08:28;10.73;;;4.67;;
1847;SDS011;924;52.448;13.356;2023-05-07T08:10:54;5.00;;;4.60;;
1847;SDS011;924;52.448;13.356;2023-05-07T08:13:19;4.57;;;4.17;;
1847;SDS011;924;52.448;13.356;2023-05-07T08:15:44;5.10;;;4.70;;
1847;SDS011;924;52.448;13.356;2023-05-07T08:18:09;5.50;;;4.60;;
1847;SDS011;924;52.448;13.356;2023-05-07T08:20:35;4.43;;;4.10;;
1847;SDS011;924;52.448;13.356;2023-05-07T08:23:04;5.10;;;4.70;;
1847;SDS011;924;52.448;13.356;2023-05-07T08:25:29;4.10;;;3.80;;
1847;SDS011;924;52.448;13.356;2023-05-07T08:27:54;5.90;;;5.30;;
1847;SDS011;924;52.448;13.356;2023-05-07T08:30:21;4.87;;;4.47;;
1847;SDS011;924;52.448;13.356;2023-05-07T08:32:46;4.77;;;4.30;;
1847;SDS011;924;52.448;13.356;2023-05-07T08:35:11;6.80;;;4.40;;
1847;SDS011;924;52.448;13.356;2023-05-07T08:37:36;4.00;;;3.60;;
1847;SDS011;924;52.448;13.356;2023-05-07T08:40:02;4.30;;;4.00;;
1847;SDS011;924;52.448;13.356;2023-05-07T08:42:27;3.63;;;3.33;;
1847;SDS011;924;52.448;13.356;2023-05-07T08:44:53;4.70;;;4.27;;
1847;SDS011;924;52.448;13.356;2023-05-07T08:47:22;4.43;;;4.03;;
1847;SDS011;924;52.448;13.356;2023-05-07T08:49:53;4.30;;;4.00;;
1847;SDS011;924;52.448;13.356;2023-05-07T08:52:18;4.30;;;4.00;;
1847;SDS011;924;52.448;13.356;2023-05-07T08:54:45;4.70;;;4.30;;
1847;SDS011;924;52.448;13.356;2023-05-07T08:57:10;4.63;;;3.70;;
1847;SDS011;924;52.448;13.356;2023-05-07T08:59:35;4.13;;;3.83;;
1847;SDS011;924;52.448;13.356;2023-05-07T09:02:01;4.07;;;3.70;;
1847;SDS011;924;52.448;13.356;2023-05-07T09:04:27;3.83;;;3.40;;
1847;SDS011;924;52.448;13.356;2023-05-07T09:06:52;3.93;;;3.63;;
1847;SDS011;924;52.448;13.356;2023-05-07T09:09:17;3.80;;;3.30;;
1847;SDS011;924;52.448;13.356;2023-05-07T09:11:45;4.63;;;3.83;;
1847;SDS011;924;52.448;13.356;2023-05-07T09:14:11;3.07;;;2.80;;
1847;SDS011;924;52.448;13.356;2023-05-07T09:16:36;3.80;;;3.50;;
1847;SDS011;924;52.448;13.356;2023-05-07T09:19:01;3.73;;;3.43;;
1847;SDS011;924;52.448;13.356;2023-05-07T09:21:27;4.03;;;3.50;;
1847;SDS011;924;52.448;13.356;2023-05-07T09:23:52;3.63;;;3.30;;
1847;SDS011;924;52.448;13.356;2023-05-07T09:26:20;3.47;;;3.03;;
1847;SDS011;924;52.448;13.356;2023-05-07T09:28:46;3.70;;;3.40;;
1847;SDS011;924;52.448;13.356;2023-05-07T09:31:11;3.93;;;3.53;;
1847;SDS011;924;52.448;13.356;2023-05-07T09:33:37;4.33;;;3.57;;
1847;SDS011;924;52.448;13.356;2023-05-07T09:36:06;6.13;;;3.43;;
1847;SDS011;924;52.448;13.356;2023-05-07T09:38:32;3.77;;;3.47;;
1847;SDS011;924;52.448;13.356;2023-05-07T09:41:11;3.97;;;3.43;;
1847;SDS011;924;52.448;13.356;2023-05-07T09:43:37;4.43;;;3.70;;
1847;SDS011;924;52.448;13.356;2023-05-07T09:46:06;3.80;;;3.50;;
1847;SDS011;924;52.448;13.356;2023-05-07T09:48:32;3.77;;;3.37;;
1847;SDS011;924;52.448;13.356;2023-05-07T09:51:01;3.97;;;3.57;;
1847;SDS011;924;52.448;13.356;2023-05-07T09:53:27;3.73;;;3.43;;
1847;SDS011;924;52.448;13.356;2023-05-07T09:55:53;3.80;;;3.50;;
1847;SDS011;924;52.448;13.356;2023-05-07T09:58:18;4.90;;;3.20;;
1847;SDS011;924;52.448;13.356;2023-05-07T10:00:44;5.07;;;3.70;;
1847;SDS011;924;52.448;13.356;2023-05-07T10:03:10;4.10;;;3.40;;
1847;SDS011;924;52.448;13.356;2023-05-07T10:05:36;4.37;;;3.97;;
1847;SDS011;924;52.448;13.356;2023-05-07T10:08:02;4.00;;;3.43;;
1847;SDS011;924;52.448;13.356;2023-05-07T10:10:27;3.87;;;3.40;;
1847;SDS011;924;52.448;13.356;2023-05-07T10:12:54;3.60;;;3.30;;
1847;SDS011;924;52.448;13.356;2023-05-07T10:15:19;3.93;;;3.43;;
1847;SDS011;924;52.448;13.356;2023-05-07T10:17:44;3.70;;;2.97;;
1847;SDS011;924;52.448;13.356;2023-05-07T10:20:10;3.30;;;3.00;;
1847;SDS011;924;52.448;13.356;2023-05-07T10:22:41;5.93;;;3.13;;
1847;SDS011;924;52.448;13.356;2023-05-07T10:25:14;3.20;;;2.90;;
1847;SDS011;924;52.448;13.356;2023-05-07T10:27:40;3.10;;;2.90;;
1847;SDS011;924;52.448;13.356;2023-05-07T10:32:45;3.77;;;3.40;;
1847;SDS011;924;52.448;13.356;2023-05-07T10:35:22;3.00;;;2.70;;
1847;SDS011;924;52.448;13.356;2023-05-07T10:37:50;3.10;;;2.47;;
1847;SDS011;924;52.448;13.356;2023-05-07T10:40:15;3.20;;;2.90;;
1847;SDS011;924;52.448;13.356;2023-05-07T10:42:55;2.73;;;2.47;;
1847;SDS011;924;52.448;13.356;2023-05-07T10:45:21;2.60;;;2.40;;
1847;SDS011;924;52.448;13.356;2023-05-07T10:50:30;3.20;;;2.23;;
1847;SDS011;924;52.448;13.356;2023-05-07T10:53:19;2.50;;;2.27;;
1847;SDS011;924;52.448;13.356;2023-05-07T10:55:40;1.80;;;1.70;;
1847;SDS011;924;52.448;13.356;2023-05-07T11:00:46;2.50;;;2.30;;
1847;SDS011;924;52.448;13.356;2023-05-07T11:03:11;2.80;;;2.33;;
1847;SDS011;924;52.448;13.356;2023-05-07T11:05:38;2.60;;;2.40;;
1847;SDS011;924;52.448;13.356;2023-05-07T11:08:04;2.40;;;2.20;;
1847;SDS011;924;52.448;13.356;2023-05-07T11:10:48;2.53;;;2.20;;
1847;SDS011;924;52.448;13.356;2023-05-07T11:13:14;3.37;;;2.50;;
1847;SDS011;924;52.448;13.356;2023-05-07T11:15:40;2.70;;;2.40;;
1847;SDS011;924;52.448;13.356;2023-05-07T11:18:08;2.50;;;2.30;;
1847;SDS011;924;52.448;13.356;2023-05-07T11:25:59;2.73;;;2.33;;
1847;SDS011;924;52.448;13.356;2023-05-07T11:28:24;2.37;;;2.17;;
1847;SDS011;924;52.448;13.356;2023-05-07T11:30:50;3.03;;;2.80;;
1847;SDS011;924;52.448;13.356;2023-05-07T11:33:17;3.37;;;2.70;;
1847;SDS011;924;52.448;13.356;2023-05-07T11:35:42;3.70;;;2.53;;
1847;SDS011;924;52.448;13.356;2023-05-07T11:38:07;2.40;;;2.23;;
1847;SDS011;924;52.448;13.356;2023-05-07T11:40:32;2.53;;;2.23;;
1847;SDS011;924;52.448;13.356;2023-05-07T11:42:58;3.43;;;3.13;;
1847;SDS011;924;52.448;13.356;2023-05-07T11:45:23;2.73;;;2.53;;
1847;SDS011;924;52.448;13.356;2023-05-07T11:47:50;2.43;;;2.20;;
1847;SDS011;924;52.448;13.356;2023-05-07T11:50:15;2.33;;;2.13;;
1847;SDS011;924;52.448;13.356;2023-05-07T11:52:49;3.47;;;2.60;;
1847;SDS011;924;52.448;13.356;2023-05-07T11:55:15;3.43;;;2.90;;
1847;SDS011;924;52.448;13.356;2023-05-07T11:57:43;2.77;;;2.57;;
1847;SDS011;924;52.448;13.356;2023-05-07T12:00:08;2.40;;;2.20;;
1847;SDS011;924;52.448;13.356;2023-05-07T12:02:34;3.00;;;2.70;;
1847;SDS011;924;52.448;13.356;2023-05-07T12:05:00;2.50;;;2.30;;
1847;SDS011;924;52.448;13.356;2023-05-07T12:07:25;2.33;;;2.03;;
1847;SDS011;924;52.448;13.356;2023-05-07T12:09:50;2.50;;;2.30;;
1847;SDS011;924;52.448;13.356;2023-05-07T12:12:16;3.00;;;2.70;;
1847;SDS011;924;52.448;13.356;2023-05-07T12:14:42;5.13;;;2.77;;
1847;SDS011;924;52.448;13.356;2023-05-07T12:17:08;3.03;;;2.60;;
1847;SDS011;924;52.448;13.356;2023-05-07T12:19:34;8.00;;;2.17;;
1847;SDS011;924;52.448;13.356;2023-05-07T12:21:59;3.20;;;2.20;;
1847;SDS011;924;52.448;13.356;2023-05-07T12:24:25;2.20;;;2.00;;
1847;SDS011;924;52.448;13.356;2023-05-07T12:26:50;10.90;;;2.33;;
1847;SDS011;924;52.448;13.356;2023-05-07T12:29:15;2.17;;;2.00;;
1847;SDS011;924;52.448;13.356;2023-05-07T12:31:41;2.90;;;2.10;;
1847;SDS011;924;52.448;13.356;2023-05-07T12:34:06;4.50;;;2.20;;
1847;SDS011;924;52.448;13.356;2023-05-07T12:36:38;2.60;;;2.40;;
1847;SDS011;924;52.448;13.356;2023-05-07T12:39:05;2.63;;;2.43;;
1847;SDS011;924;52.448;13.356;2023-05-07T12:41:30;2.37;;;2.17;;
1847;SDS011;924;52.448;13.356;2023-05-07T12:43:56;2.70;;;2.50;;
1847;SDS011;924;52.448;13.356;2023-05-07T12:46:21;2.67;;;2.00;;
1847;SDS011;924;52.448;13.356;2023-05-07T12:48:48;1.70;;;1.60;;
1847;SDS011;924;52.448;13.356;2023-05-07T12:51:13;2.50;;;2.30;;
1847;SDS011;924;52.448;13.356;2023-05-07T12:53:40;2.30;;;2.10;;
1847;SDS011;924;52.448;13.356;2023-05-07T12:56:07;1.90;;;1.80;;
1847;SDS011;924;52.448;13.356;2023-05-07T12:58:33;2.00;;;1.80;;
1847;SDS011;924;52.448;13.356;2023-05-07T13:00:59;2.27;;;2.07;;
1847;SDS011;924;52.448;13.356;2023-05-07T13:05:50;2.10;;;1.90;;
1847;SDS011;924;52.448;13.356;2023-05-07T13:08:32;2.57;;;2.00;;
1847;SDS011;924;52.448;13.356;2023-05-07T13:10:58;3.50;;;2.07;;
1847;SDS011;924;52.448;13.356;2023-05-07T13:13:24;2.70;;;2.50;;
1847;SDS011;924;52.448;13.356;2023-05-07T13:15:50;1.70;;;1.60;;
1847;SDS011;924;52.448;13.356;2023-05-07T13:18:15;2.10;;;1.70;;
1847;SDS011;924;52.448;13.356;2023-05-07T13:20:40;2.10;;;1.87;;
1847;SDS011;924;52.448;13.356;2023-05-07T13:23:05;2.60;;;1.90;;
1847;SDS011;924;52.448;13.356;2023-05-07T13:25:31;2.20;;;2.00;;
1847;SDS011;924;52.448;13.356;2023-05-07T13:27:56;2.03;;;1.83;;
1847;SDS011;924;52.448;13.356;2023-05-07T13:30:22;2.63;;;1.70;;
1847;SDS011;924;52.448;13.356;2023-05-07T13:32:47;1.77;;;1.67;;
1847;SDS011;924;52.448;13.356;2023-05-07T13:35:12;2.37;;;1.93;;
1847;SDS011;924;52.448;13.356;2023-05-07T13:37:38;2.70;;;2.13;;
1847;SDS011;924;52.448;13.356;2023-05-07T13:40:03;2.97;;;2.07;;
1847;SDS011;924;52.448;13.356;2023-05-07T13:42:29;2.13;;;2.03;;
1847;SDS011;924;52.448;13.356;2023-05-07T13:44:55;2.30;;;1.80;;
1847;SDS011;924;52.448;13.356;2023-05-07T13:47:21;2.40;;;1.90;;
1847;SDS011;924;52.448;13.356;2023-05-07T13:49:46;1.80;;;1.70;;
1847;SDS011;924;52.448;13.356;2023-05-07T13:52:14;2.13;;;1.97;;
1847;SDS011;924;52.448;13.356;2023-05-07T13:54:39;2.00;;;1.90;;
1847;SDS011;924;52.448;13.356;2023-05-07T13:57:05;2.20;;;1.93;;
1847;SDS011;924;52.448;13.356;2023-05-07T13:59:30;2.20;;;1.80;;
1847;SDS011;924;52.448;13.356;2023-05-07T14:01:55;1.70;;;1.60;;
1847;SDS011;924;52.448;13.356;2023-05-07T14:04:21;2.13;;;2.00;;
1847;SDS011;924;52.448;13.356;2023-05-07T14:06:46;2.47;;;1.90;;
1847;SDS011;924;52.448;13.356;2023-05-07T14:09:11;2.33;;;1.97;;
1847;SDS011;924;52.448;13.356;2023-05-07T14:11:38;2.50;;;2.30;;
1847;SDS011;924;52.448;13.356;2023-05-07T14:14:03;2.10;;;1.83;;
1847;SDS011;924;52.448;13.356;2023-05-07T14:16:28;3.70;;;2.10;;
1847;SDS011;924;52.448;13.356;2023-05-07T14:18:54;2.50;;;2.20;;
1847;SDS011;924;52.448;13.356;2023-05-07T14:21:19;1.90;;;1.80;;
1847;SDS011;924;52.448;13.356;2023-05-07T14:23:44;2.70;;;2.13;;
1847;SDS011;924;52.448;13.356;2023-05-07T14:26:10;2.33;;;2.13;;
1847;SDS011;924;52.448;13.356;2023-05-07T14:28:35;2.27;;;2.00;;
1847;SDS011;924;52.448;13.356;2023-05-07T14:31:00;2.70;;;1.80;;
1847;SDS011;924;52.448;13.356;2023-05-07T14:33:25;2.50;;;2.30;;
1847;SDS011;924;52.448;13.356;2023-05-07T14:35:51;2.20;;;2.00;;
1847;SDS011;924;52.448;13.356;2023-05-07T14:38:16;2.50;;;2.30;;
1847;SDS011;924;52.448;13.356;2023-05-07T14:40:41;2.63;;;2.17;;
1847;SDS011;924;52.448;13.356;2023-05-07T14:43:06;3.20;;;2.20;;
1847;SDS011;924;52.448;13.356;2023-05-07T14:45:32;2.70;;;2.20;;
1847;SDS011;924;52.448;13.356;2023-05-07T14:47:57;2.50;;;2.13;;
1847;SDS011;924;52.448;13.356;2023-05-07T14:50:22;1.77;;;1.67;;
1847;SDS011;924;52.448;13.356;2023-05-07T14:52:47;4.13;;;2.10;;
1847;SDS011;924;52.448;13.356;2023-05-07T14:55:12;2.20;;;2.00;;
1847;SDS011;924;52.448;13.356;2023-05-07T14:57:38;2.67;;;2.23;;
1847;SDS011;924;52.448;13.356;2023-05-07T15:00:03;2.50;;;2.30;;
1847;SDS011;924;52.448;13.356;2023-05-07T15:02:29;2.27;;;2.07;;
1847;SDS011;924;52.448;13.356;2023-05-07T15:04:54;2.43;;;2.10;;
1847;SDS011;924;52.448;13.356;2023-05-07T15:07:20;2.70;;;2.50;;
1847;SDS011;924;52.448;13.356;2023-05-07T15:09:45;4.23;;;2.57;;
1847;SDS011;924;52.448;13.356;2023-05-07T15:12:10;2.60;;;2.40;;